Flight Track Log - Related Links

Times and Time Zones

All times are in EDT time to prevent confusion due to time zone crossing. See the UPS2981 flight status page for this flight to view local times or setup timezone preferences in your user account.

Time Position Orientation Groundspeed Altitude Reporting Facility
EDT Latitude Longitude Course Direction KTS MPH feet Rate Location/Type
Fri 09:24:14 AM 47.5137 -122.2880 148° Southeast 166 191 1,100  Level FlightAware ADS-B
Fri 09:24:27 AM 47.5039 -122.2790 147° Southeast 191 220 1,600 1,846 Climbing FlightAware ADS-B
Fri 09:24:40 AM 47.4933 -122.2680 147° Southeast 219 252 1,900 2,160 Climbing FlightAware ADS-B
Fri 09:24:52 AM 47.4828 -122.2580 148° Southeast 224 258 2,500 3,429 Climbing FlightAware ADS-B
Fri 09:25:01 AM 47.4747 -122.2511 149° Southeast 228 262 3,100 3,375 Climbing FlightAware ADS-B
Fri 09:25:08 AM 47.4689 -122.2460 149° Southeast 231 266 3,400 2,100 Climbing FlightAware ADS-B
Fri 09:25:21 AM 47.4563 -122.2347 149° Southeast 249 287 3,800 2,000 Climbing FlightAware ADS-B
Fri 09:25:23 AM 47.4542 -122.2330 149° Southeast 250 288 3,900 2,000 Climbing FlightAware ADS-B
Fri 09:25:30 AM 47.4475 -122.2270 147° Southeast 260 299 4,100 2,400 Climbing FlightAware ADS-B
Fri 09:25:33 AM 47.4439 -122.2230 143° Southeast 264 304 4,300 3,429 Climbing FlightAware ADS-B
Fri 09:25:37 AM 47.4404 -122.2180 138° Southeast 268 308 4,500 3,000 Climbing FlightAware ADS-B
Fri 09:25:41 AM 47.4367 -122.2130 133° Southeast 269 310 4,700 3,600 Climbing FlightAware ADS-B
Fri 09:25:42 AM 47.4363 -122.2117 131° Southeast 269 310 4,800 3,000 Climbing FlightAware ADS-B
Fri 09:25:45 AM 47.4342 -122.2080 129° Southeast 268 308 4,900 2,000 Climbing FlightAware ADS-B
Fri 09:25:48 AM 47.4318 -122.2030 123° Southeast 272 313 5,000 3,000 Climbing FlightAware ADS-B
Fri 09:25:51 AM 47.4299 -122.1970 119° Southeast 274 315 5,200 4,000 Climbing FlightAware ADS-B
Fri 09:25:54 AM 47.4281 -122.1920 116° Southeast 275 316 5,400 2,571 Climbing FlightAware ADS-B
Fri 09:25:58 AM 47.4265 -122.1860 111° Southeast 278 320 5,500 2,571 Climbing FlightAware ADS-B
Fri 09:26:01 AM 47.4251 -122.1800 108° East 280 322 5,700 4,000 Climbing FlightAware ADS-B
Fri 09:26:04 AM 47.4243 -122.1740 104° East 280 322 5,900 3,429 Climbing FlightAware ADS-B
Fri 09:26:08 AM 47.4235 -122.1670 99° East 278 320 6,100 3,429 Climbing FlightAware ADS-B
Fri 09:26:11 AM 47.4231 -122.1620 96° East 276 318 6,300 4,000 Climbing FlightAware ADS-B
Fri 09:26:14 AM 47.4229 -122.1560 93° East 275 316 6,500 3,000 Climbing FlightAware ADS-B
Fri 09:26:15 AM 47.4229 -122.1550 93° East 275 316 6,500 3,000 Level FlightAware ADS-B
Fri 09:26:30 AM 47.4229 -122.1260 89° East 282 325 7,300 2,800 Climbing FlightAware ADS-B
Fri 09:26:45 AM 47.4234 -122.0970 88° East 292 336 7,900 2,857 Climbing FlightAware ADS-B
Fri 09:26:51 AM 47.4237 -122.0850 88° East 293 337 8,300 3,200 Climbing FlightAware ADS-B
Fri 09:27:00 AM 47.4243 -122.0660 87° East 296 341 8,700 3,158 Climbing FlightAware ADS-B
Fri 09:27:10 AM 47.4248 -122.0473 88° East 300 345 9,300 3,000 Climbing FlightAware ADS-B
Fri 09:27:16 AM 47.4251 -122.0340 88° East 300 345 9,500 2,710 Climbing FlightAware ADS-B
Fri 09:27:41 AM 47.4268 -121.9810 88° East 314 361 10,700 2,600 Climbing FlightAware ADS-B
Fri 09:27:46 AM 47.4270 -121.9711 88° East 320 368 10,800 1,714 Climbing FlightAware ADS-B
Fri 09:28:09 AM 47.4279 -121.9170 89° East 353 406 11,500 2,400 Climbing FlightAware ADS-B
Fri 09:28:21 AM 47.4275 -121.9486 90° East 375 432 12,200 2,516 Climbing FlightAware ADS-B
Fri 09:28:40 AM 47.4283 -121.8400 90° East 384 442 12,800 2,757 Climbing FlightAware ADS-B
Fri 09:28:58 AM 47.4287 -121.7934 89° East 392 451 13,900 3,600 Climbing FlightAware ADS-B
Fri 09:29:10 AM 47.4290 -121.7600 89° East 397 457 14,600 3,450 Climbing FlightAware ADS-B
Fri 09:29:38 AM 47.4295 -121.6825 90° East 411 473 16,200 3,455 Climbing FlightAware ADS-B
Fri 09:29:43 AM 47.4293 -121.6680 91° East 413 475 16,500 3,429 Climbing FlightAware ADS-B
Fri 09:30:13 AM 47.4277 -121.5810 91° East 422 486 18,200 3,385 Climbing FlightAware ADS-B
Fri 09:30:22 AM 47.4272 -121.5555 92° East 425 489 18,700 3,097 Climbing FlightAware ADS-B
Fri 09:30:44 AM 47.4262 -121.4920 91° East 431 496 19,800 3,000 Climbing FlightAware ADS-B
Fri 09:31:14 AM 47.4248 -121.4024 91° East 442 509 21,300 2,800 Climbing FlightAware ADS-B
Fri 09:31:44 AM 47.4235 -121.3110 91° East 451 519 22,600 2,550 Climbing FlightAware ADS-B
Fri 09:31:54 AM 47.4231 -121.2806 91° East 455 524 23,000 2,200 Climbing FlightAware ADS-B
Fri 09:32:14 AM 47.4220 -121.2170 91° East 464 534 23,700 2,217 Climbing FlightAware ADS-B
Fri 09:32:40 AM 47.4206 -121.1331 91° East 474 545 24,700 2,129 Climbing FlightAware ADS-B (CYVR)
Fri 09:32:45 AM 47.4204 -121.1190 91° East 476 548 24,800 2,229 Climbing FlightAware ADS-B
Fri 09:33:15 AM 47.4187 -121.0190 92° East 485 558 26,000 2,333 Climbing FlightAware ADS-B
Fri 09:33:21 AM 47.4183 -120.9999 92° East 487 560 26,200 2,400 Climbing FlightAware ADS-B
Fri 09:33:45 AM 47.4168 -120.9200 92° East 488 562 27,200 2,298 Climbing FlightAware ADS-B
Fri 09:34:08 AM 47.4153 -120.8431 92° East 496 571 28,000 1,935 Climbing FlightAware ADS-B
Fri 09:34:16 AM 47.4147 -120.8150 92° East 498 573 28,200 2,154 Climbing FlightAware ADS-B
Fri 09:34:47 AM 47.4126 -120.7110 92° East 502 578 29,400 2,294 Climbing FlightAware ADS-B
Fri 09:34:50 AM 47.4127 -120.7145 92° East 502 578 29,500 3,097 Climbing FlightAware ADS-B
Fri 09:35:18 AM 47.4104 -120.6050 92° East 493 567 31,000 3,000 Climbing FlightAware ADS-B
Fri 09:35:48 AM 47.4081 -120.5040 92° East 487 560 32,400 2,706 Climbing FlightAware ADS-B
Fri 09:36:09 AM 47.4047 -120.4350 97° East 478 550 33,300 2,609 Climbing FlightAware ADS-B
Fri 09:36:11 AM 47.4041 -120.4290 96° East 476 548 33,400 2,160 Climbing FlightAware ADS-B (KPFC)
Fri 09:36:34 AM 47.3954 -120.3570 102° East 470 541 34,200 2,000 Climbing FlightAware ADS-B
Fri 09:36:44 AM 47.3902 -120.3249 103° East 466 536 34,500 1,800 Climbing FlightAware ADS-B (KPFC)
Fri 09:37:04 AM 47.3801 -120.2640 104° East 466 536 35,100 1,800 Climbing FlightAware ADS-B
Fri 09:37:24 AM 47.3694 -120.2036 105° East 466 536 35,700 1,800 Climbing FlightAware ADS-B (KPFC)
Fri 09:37:34 AM 47.3638 -120.1720 105° East 465 535 36,000 1,535 Climbing FlightAware ADS-B
Fri 09:38:07 AM 47.3462 -120.0730 105° East 466 536 36,800 1,231 Climbing FlightAware ADS-B
Fri 09:38:13 AM 47.3425 -120.0516 104° East 468 539 36,800 1,000 Level FlightAware ADS-B (KPFC)
Fri 09:38:37 AM 47.3295 -119.9790 105° East 472 543 37,300 1,222 Climbing FlightAware ADS-B
Fri 09:39:07 AM 47.3129 -119.8850 105° East 472 543 37,900 1,222 Climbing FlightAware ADS-B
Fri 09:39:31 AM 47.3000 -119.8122 105° East 471 542 38,400 1,161 Climbing FlightAware ADS-B
Fri 09:39:38 AM 47.2961 -119.7900 105° East 471 542 38,500 973 Climbing FlightAware ADS-B
Fri 09:40:08 AM 47.2794 -119.6960 105° East 473 544 39,000 909 Climbing FlightAware ADS-B
Fri 09:40:11 AM 47.2791 -119.6944 105° East 474 545 39,000  Level FlightAware ADS-B
Fri 09:40:38 AM 47.2625 -119.6020 105° East 481 554 39,000  Level FlightAware ADS-B
Fri 09:40:47 AM 47.2574 -119.5731 104° East 480 552 39,000  Level FlightAware ADS-B (KPFC)
Fri 09:41:08 AM 47.2454 -119.5070 105° East 485 558 39,000  Level FlightAware ADS-B
Fri 09:41:39 AM 47.2275 -119.4080 105° East 488 562 39,000  Level FlightAware ADS-B
Fri 09:41:53 AM 47.2197 -119.3630 103° East 488 562 39,000  Level FlightAware ADS-B
Fri 09:42:00 AM 47.2165 -119.3406 102° East 490 564 39,000  Level FlightAware ADS-B (KPFC)
Fri 09:42:08 AM 47.2133 -119.3140 100° East 489 563 39,000  Level FlightAware ADS-B
Fri 09:42:50 AM 47.2036 -119.1770 97° East 490 564 39,000  Level FlightAware ADS-B
Fri 09:43:27 AM 47.1969 -119.0972 97° East 488 562 39,000  Level Salt Lake Center
Fri 09:44:28 AM 47.1900 -118.8989 93° East 488 562 39,000  Level Salt Lake Center
Fri 09:45:45 AM 47.1747 -118.6211 95° East 488 562 39,000  Level Seattle Center
Fri 09:46:46 AM 47.1633 -118.4236 95° East 488 562 39,000  Level Seattle Center
Fri 09:47:46 AM 47.1519 -118.2267 95° East 488 562 39,000  Level Seattle Center
Fri 09:48:47 AM 47.1403 -118.0289 95° East 488 562 39,000  Level Seattle Center
Fri 09:49:48 AM 47.1281 -117.8319 95° East 488 562 39,000  Level Seattle Center
Fri 09:50:49 AM 47.1156 -117.6353 95° East 488 562 39,000  Level Seattle Center
Fri 09:51:50 AM 47.1031 -117.4400 95° East 487 560 39,000  Level Seattle Center
Fri 09:52:51 AM 47.0875 -117.2058 95° East 487 560 39,000  Level Seattle Center
Fri 09:53:52 AM 47.0739 -117.0114 96° East 486 559 39,000  Level Seattle Center
Fri 09:54:52 AM 47.0603 -116.8169 96° East 485 558 39,000  Level Seattle Center
Fri 09:55:53 AM 47.0464 -116.6231 96° East 484 557 39,000  Level Seattle Center
Fri 09:56:54 AM 47.0319 -116.4292 96° East 483 556 39,000  Level Seattle Center
Fri 09:57:55 AM 47.0172 -116.2347 96° East 483 556 39,000  Level Seattle Center
Fri 09:58:56 AM 47.0022 -116.0397 96° East 484 557 39,000  Level Seattle Center
Fri 09:59:57 AM 46.9867 -115.8450 97° East 484 557 39,000  Level Seattle Center
Fri 10:00:58 AM 46.9708 -115.6497 97° East 485 558 39,000  Level Seattle Center
Fri 10:01:55 AM 46.9531 -115.4342 97° East 485 558 39,000  Level Salt Lake Center
Fri 10:02:56 AM 46.9369 -115.2422 97° East 485 558 39,000  Level Salt Lake Center
Fri 10:03:58 AM 46.9203 -115.0489 97° East 484 557 39,000  Level Salt Lake Center
Fri 10:05:00 AM 46.9031 -114.8558 97° East 483 556 39,000  Level Salt Lake Center
Fri 10:06:01 AM 46.8861 -114.6636 97° East 483 556 39,000  Level Salt Lake Center
Fri 10:07:03 AM 46.8686 -114.4717 98° East 482 555 39,000  Level Salt Lake Center
Fri 10:08:05 AM 46.8456 -114.2406 98° East 482 555 39,000  Level Salt Lake Center
Fri 10:09:07 AM 46.8281 -114.0450 97° East 483 556 39,000  Level Salt Lake Center
Fri 10:10:08 AM 46.8094 -113.8514 98° East 485 558 39,000  Level Salt Lake Center
Fri 10:11:10 AM 46.7900 -113.6600 98° East 482 555 39,000  Level Salt Lake Center
Fri 10:12:12 AM 46.7706 -113.4675 98° East 482 555 39,000  Level Salt Lake Center
Fri 10:13:14 AM 46.7511 -113.2758 98° East 482 555 39,000  Level Salt Lake Center
Fri 10:14:16 AM 46.7317 -113.0839 98° East 482 555 39,000  Level Salt Lake Center
Fri 10:15:18 AM 46.7072 -112.8564 99° East 482 555 39,000  Level Salt Lake Center
Fri 10:16:19 AM 46.6867 -112.6644 99° East 481 554 39,000  Level Salt Lake Center
Fri 10:17:21 AM 46.6658 -112.4739 99° East 481 554 39,000  Level Salt Lake Center
Fri 10:18:23 AM 46.6447 -112.2825 99° East 480 552 39,000  Level Salt Lake Center
Fri 10:24:24 AM 46.4233 -111.1423 108° East 474 545 39,000  Level FlightAware ADS-B (KBIL)
Fri 10:24:53 AM 46.4025 -111.0519 108° East 474 545 39,000  Level FlightAware ADS-B (KBIL)
Fri 10:25:22 AM 46.3830 -110.9684 108° East 474 545 39,000  Level FlightAware ADS-B (KBIL)
Fri 10:25:52 AM 46.3615 -110.8755 108° East 474 545 39,000  Level FlightAware ADS-B (KBIL)
Fri 10:26:23 AM 46.3398 -110.7824 108° East 474 545 39,000  Level FlightAware ADS-B (KBIL)
Fri 10:26:52 AM 46.3196 -110.6966 108° East 474 545 39,000  Level FlightAware ADS-B (KBIL)
Fri 10:27:23 AM 46.2977 -110.6040 108° East 474 545 39,000  Level FlightAware ADS-B (KBIL)
Fri 10:27:52 AM 46.2767 -110.5152 108° East 473 544 39,000  Level FlightAware ADS-B (KBIL)
Fri 10:28:22 AM 46.2553 -110.4251 108° East 473 544 39,000  Level FlightAware ADS-B (KBIL)
Fri 10:28:52 AM 46.2346 -110.3383 109° East 473 544 39,000  Level FlightAware ADS-B (KBIL)
Fri 10:29:23 AM 46.2120 -110.2442 109° East 473 544 39,000  Level FlightAware ADS-B (KBIL)
Fri 10:29:52 AM 46.1920 -110.1610 109° East 473 544 39,000  Level FlightAware ADS-B (KBIL)
Fri 10:30:22 AM 46.1697 -110.0687 109° East 473 544 39,000  Level FlightAware ADS-B (KBIL)
Fri 10:30:52 AM 46.1483 -109.9806 109° East 473 544 39,000  Level FlightAware ADS-B (KBIL)
Fri 10:31:23 AM 46.1261 -109.8898 109° East 472 543 39,000  Level FlightAware ADS-B (KBIL)
Fri 10:31:53 AM 46.1041 -109.7999 109° East 472 543 39,000  Level FlightAware ADS-B (KBIL)
Fri 10:32:23 AM 46.0825 -109.7110 109° East 471 542 39,000  Level FlightAware ADS-B (KBIL)
Fri 10:32:35 AM 46.0743 -109.6777 109° East 472 543 39,000  Level FlightAware ADS-B (KBIL)
Fri 10:38:52 AM 45.7947 -108.5725 112° Southeast 469 540 39,000  Level FlightAware ADS-B (KBIL)
Fri 10:39:22 AM 45.7683 -108.4850 113° Southeast 469 540 39,000  Level FlightAware ADS-B (KBIL)
Fri 10:39:52 AM 45.7425 -108.3997 113° Southeast 468 539 39,000  Level FlightAware ADS-B (KBIL)
Fri 10:40:23 AM 45.7171 -108.3147 113° Southeast 467 537 39,000  Level FlightAware ADS-B (KBIL)
Fri 10:40:51 AM 45.6928 -108.2330 112° Southeast 466 536 39,000  Level FlightAware ADS-B (KBIL)
Fri 10:41:23 AM 45.6659 -108.1425 112° Southeast 465 535 39,000  Level FlightAware ADS-B (KBIL)
Fri 10:41:53 AM 45.6411 -108.0585 112° Southeast 466 536 39,000  Level FlightAware ADS-B (KBIL)
Fri 10:42:23 AM 45.6163 -107.9752 112° Southeast 466 536 39,000  Level FlightAware ADS-B (KBIL)
Fri 10:42:51 AM 45.5925 -107.8960 113° Southeast 465 535 39,000  Level FlightAware ADS-B (KBIL)
Fri 10:43:21 AM 45.5669 -107.8109 113° Southeast 463 533 39,000  Level FlightAware ADS-B (KBIL)
Fri 10:43:53 AM 45.5402 -107.7227 113° Southeast 463 533 39,000  Level FlightAware ADS-B (KBIL)
Fri 10:44:21 AM 45.5165 -107.6448 113° Southeast 463 533 39,000  Level FlightAware ADS-B (KBIL)
Fri 10:44:53 AM 45.4888 -107.5536 113° Southeast 462 532 39,000  Level FlightAware ADS-B (KBIL)
Fri 10:45:23 AM 45.4639 -107.4722 113° Southeast 462 532 39,000  Level FlightAware ADS-B (KBIL)
Fri 10:45:54 AM 45.4378 -107.3870 113° Southeast 461 531 39,000  Level FlightAware ADS-B (KBIL)
Fri 10:46:23 AM 45.4122 -107.3039 113° Southeast 461 531 39,000  Level FlightAware ADS-B (KBIL)
Fri 10:46:53 AM 45.3866 -107.2209 113° Southeast 460 529 39,000  Level FlightAware ADS-B (KBIL)
Fri 10:47:23 AM 45.3613 -107.1392 113° Southeast 461 531 39,000  Level FlightAware ADS-B (KBIL)
Fri 10:47:49 AM 45.3422 -107.0777 113° Southeast 461 531 39,000  Level FlightAware ADS-B (KBIL)
Fri 10:48:21 AM 45.3167 -106.9944 113° Southeast 462 532 39,000  Level Denver Center
Fri 10:49:26 AM 45.2661 -106.8281 113° Southeast 456 525 39,000  Level Salt Lake Center
Fri 10:50:28 AM 45.2139 -106.6636 114° Southeast 458 527 39,000  Level Salt Lake Center
Fri 10:51:30 AM 45.1506 -106.4669 114° Southeast 458 527 39,000  Level Salt Lake Center
Fri 10:52:32 AM 45.0986 -106.3036 114° Southeast 457 526 39,000  Level Salt Lake Center
Fri 10:53:34 AM 45.0456 -106.1394 115° Southeast 457 526 39,000  Level Salt Lake Center
Fri 10:54:36 AM 44.9975 -105.9739 112° Southeast 457 526 39,000  Level Salt Lake Center
Fri 10:55:39 AM 44.9722 -105.7978 101° East 458 527 39,000  Level Salt Lake Center
Fri 10:56:41 AM 44.9481 -105.6217 101° East 458 527 39,000  Level Salt Lake Center
Fri 10:56:58 AM 44.9359 -105.5399 101° East 458 527 39,000  Level FlightAware ADS-B (KBIL)
Fri 10:57:43 AM 44.9183 -105.4111 101° East 458 527 39,000  Level Salt Lake Center
Fri 10:58:45 AM 44.8925 -105.2350 102° East 459 528 39,000  Level Salt Lake Center
Fri 10:59:47 AM 44.8675 -105.0583 101° East 459 528 39,000  Level Salt Lake Center
Fri 11:00:49 AM 44.8400 -104.8808 102° East 464 534 39,000  Level Salt Lake Center
Fri 11:01:48 AM 44.8139 -104.7069 102° East 462 532 39,000  Level Denver Center
Fri 11:02:50 AM 44.7858 -104.5131 101° East 461 531 39,000  Level Denver Center
Fri 11:03:52 AM 44.7589 -104.3439 103° East 463 533 39,000  Level Denver Center
Fri 11:04:58 AM 44.7286 -104.1431 102° East 463 533 39,000  Level Salt Lake Center
Fri 11:05:57 AM 44.7025 -103.9758 102° East 465 535 39,000  Level Denver Center
Fri 11:06:59 AM 44.6708 -103.7764 103° East 466 536 39,000  Level Denver Center
Fri 11:08:01 AM 44.6428 -103.6053 103° East 467 537 39,000  Level Denver Center
Fri 11:09:03 AM 44.6111 -103.4128 103° East 467 537 39,000  Level Denver Center
Fri 11:10:05 AM 44.5836 -103.2350 102° East 466 536 39,000  Level Denver Center
Fri 11:11:07 AM 44.5542 -103.0586 103° East 465 535 39,000  Level Denver Center
Fri 11:12:09 AM 44.5250 -102.8831 103° East 465 535 39,000  Level Denver Center
Fri 11:13:11 AM 44.4953 -102.7047 103° East 466 536 39,000  Level Denver Center
Fri 11:14:13 AM 44.4586 -102.4908 103° East 472 543 39,000  Level Denver Center
Fri 11:15:15 AM 44.4283 -102.3122 103° East 472 543 39,000  Level Denver Center
Fri 11:16:17 AM 44.3969 -102.1375 104° East 471 542 39,000  Level Denver Center
Fri 11:17:20 AM 44.3667 -101.9583 103° East 471 542 39,000  Level Denver Center
Fri 11:18:22 AM 44.3331 -101.7792 105° East 473 544 39,000  Level Denver Center
Fri 11:19:24 AM 44.3003 -101.5997 104° East 475 547 39,000  Level Denver Center
Fri 11:20:26 AM 44.2586 -101.3825 105° East 482 555 39,000  Level Denver Center
Fri 11:21:28 AM 44.2244 -101.2019 105° East 482 555 39,000  Level Denver Center
Fri 11:22:30 AM 44.1925 -101.0247 104° East 480 552 39,000  Level Denver Center
Fri 11:23:32 AM 44.1597 -100.8461 104° East 480 552 39,000  Level Denver Center
Fri 11:24:50 AM 44.1153 -100.5964 104° East 481 554 39,000  Level Minneapolis Center
Fri 11:25:52 AM 44.0808 -100.4175 105° East 483 556 39,000  Level Minneapolis Center
Fri 11:26:54 AM 44.0458 -100.2356 105° East 485 558 39,000  Level Minneapolis Center
Fri 11:27:56 AM 44.0106 -100.0533 105° East 487 560 39,000  Level Minneapolis Center
Fri 11:28:58 AM 43.9728 -99.8728 106° East 489 563 39,000  Level Minneapolis Center
Fri 11:30:00 AM 43.9242 -99.6564 107° East 490 564 39,000  Level Minneapolis Center
Fri 11:31:02 AM 43.8839 -99.4756 107° East 492 566 39,000  Level Minneapolis Center
Fri 11:32:04 AM 43.8433 -99.2939 107° East 494 568 39,000  Level Minneapolis Center
Fri 11:33:07 AM 43.8022 -99.1125 107° East 495 570 39,000  Level Minneapolis Center
Fri 11:34:09 AM 43.7608 -98.9303 107° East 496 571 39,000  Level Minneapolis Center
Fri 11:35:11 AM 43.7106 -98.7119 108° East 497 572 39,000  Level Minneapolis Center
Fri 11:36:13 AM 43.6678 -98.5278 108° East 499 574 39,000  Level Minneapolis Center
Fri 11:37:15 AM 43.6239 -98.3411 108° East 501 577 39,000  Level Minneapolis Center
Fri 11:38:17 AM 43.5817 -98.1622 108° East 502 578 39,000  Level Minneapolis Center
Fri 11:39:19 AM 43.5381 -97.9792 108° East 503 579 39,000  Level Minneapolis Center
Fri 11:40:21 AM 43.4939 -97.7958 108° East 505 581 39,000  Level Minneapolis Center
Fri 11:41:23 AM 43.4408 -97.5764 108° East 506 582 39,000  Level Minneapolis Center
Fri 11:42:25 AM 43.3961 -97.3931 109° East 507 583 39,000  Level Minneapolis Center
Fri 11:43:28 AM 43.3508 -97.2097 109° East 508 585 39,000  Level Minneapolis Center
Fri 11:44:30 AM 43.3053 -97.0267 109° East 509 586 39,000  Level Minneapolis Center
Fri 11:50:14 AM 43.0287 -95.9436 110° East 513 590 39,000  Level FlightAware ADS-B
Fri 11:50:50 AM 43.0030 -95.8454 110° East 512 589 39,000  Level FlightAware ADS-B
Fri 11:51:29 AM 42.9641 -95.7287 124° Southeast 496 571 39,000  Level FlightAware ADS-B
Fri 11:52:18 AM 42.8992 -95.5932 123° Southeast 497 572 39,000  Level FlightAware ADS-B
Fri 11:52:59 AM 42.8492 -95.4872 123° Southeast 498 573 39,000  Level FlightAware ADS-B
Fri 11:53:35 AM 42.8054 -95.3945 122° Southeast 500 575 39,000  Level FlightAware ADS-B (KSGS)
Fri 11:53:36 AM 42.8104 -95.4050 123° Southeast 500 575 39,000  Level FlightAware ADS-B
Fri 11:54:19 AM 42.7492 -95.2763 123° Southeast 501 577 39,000  Level FlightAware ADS-B
Fri 11:54:58 AM 42.7018 -95.1774 123° Southeast 502 578 39,000  Level FlightAware ADS-B
Fri 11:55:39 AM 42.6475 -95.0639 123° Southeast 503 579 39,000  Level FlightAware ADS-B
Fri 11:56:18 AM 42.5991 -94.9628 123° Southeast 503 579 39,000  Level FlightAware ADS-B
Fri 11:56:58 AM 42.5494 -94.8594 123° Southeast 505 581 39,000  Level FlightAware ADS-B
Fri 11:57:25 AM 42.5199 -94.7982 123° Southeast 505 581 39,000  Level FlightAware ADS-B (KSGS)
Fri 11:57:41 AM 42.5047 -94.7660 121° Southeast 508 585 39,000  Level FlightAware ADS-B
Fri 11:58:00 AM 42.4784 -94.6846 109° East 518 596 39,000  Level FlightAware ADS-B (KSGS)
Fri 11:58:02 AM 42.4799 -94.6902 110° East 519 597 39,000  Level FlightAware ADS-B
Fri 11:58:12 AM 42.4741 -94.6685 110° East 518 596 39,000  Level FlightAware ADS-B (KSGS)
Fri 11:58:41 AM 42.4459 -94.5664 110° East 520 598 39,000  Level FlightAware ADS-B
Fri 11:59:00 AM 42.4291 -94.5057 110° East 519 597 39,000  Level FlightAware ADS-B (KSGS)
Fri 11:59:21 AM 42.4106 -94.4380 111° Southeast 520 598 39,000  Level FlightAware ADS-B
Fri 12:00:02 PM 42.3786 -94.3234 111° Southeast 522 601 39,000  Level FlightAware ADS-B
Fri 12:00:41 PM 42.3432 -94.1966 111° Southeast 523 602 39,000  Level FlightAware ADS-B
Fri 12:01:01 PM 42.3373 -94.1755 110° East 524 603 39,000  Level FlightAware ADS-B (KSGS)
Fri 12:01:23 PM 42.3067 -94.0659 111° Southeast 525 604 39,000  Level FlightAware ADS-B
Fri 12:02:03 PM 42.2704 -93.9454 114° Southeast 525 604 39,000  Level FlightAware ADS-B
Fri 12:02:50 PM 42.2232 -93.8098 115° Southeast 524 603 39,000  Level FlightAware ADS-B (KSGS)
Fri 12:03:01 PM 42.2159 -93.7895 116° Southeast 526 605 39,000  Level FlightAware ADS-B
Fri 12:03:43 PM 42.1648 -93.6504 117° Southeast 526 605 39,000  Level FlightAware ADS-B
Fri 12:04:01 PM 42.1481 -93.6056 116° Southeast 526 605 39,000  Level FlightAware ADS-B (KSGS)
Fri 12:04:23 PM 42.1232 -93.5388 117° Southeast 528 608 39,000  Level FlightAware ADS-B
Fri 12:05:02 PM 42.0783 -93.4197 117° Southeast 529 609 39,000  Level FlightAware ADS-B
Fri 12:05:40 PM 42.0363 -93.3087 117° Southeast 530 610 39,000  Level FlightAware ADS-B
Fri 12:06:22 PM 41.9921 -93.1922 117° Southeast 531 611 39,000  Level FlightAware ADS-B
Fri 12:06:53 PM 41.9550 -93.0952 117° Southeast 533 613 39,000  Level FlightAware ADS-B
Fri 12:07:32 PM 41.9104 -92.9785 117° Southeast 534 615 39,000  Level FlightAware ADS-B
Fri 12:11:48 PM 41.6197 -92.2293 118° Southeast 533 613 39,000  Level FlightAware ADS-B
Fri 12:12:18 PM 41.5872 -92.1467 118° Southeast 533 613 39,000  Level FlightAware ADS-B
Fri 12:12:54 PM 41.5434 -92.0361 118° Southeast 532 612 39,000  Level FlightAware ADS-B
Fri 12:13:51 PM 41.4818 -91.8808 118° Southeast 531 611 39,000  Level FlightAware ADS-B
Fri 12:15:01 PM 41.4518 -91.8055 118° Southeast 531 611 39,000  Level FlightAware ADS-B
Fri 12:16:25 PM 41.3012 -91.4303 118° Southeast 531 611 39,000  Level FlightAware ADS-B
Fri 12:17:45 PM 41.2161 -91.2203 118° Southeast 530 610 39,000  Level Kansas City Center
Fri 12:18:57 PM 41.1317 -91.0142 118° Southeast 530 610 39,000  Level Chicago Center
Fri 12:19:59 PM 41.0614 -90.8431 119° Southeast 529 609 39,000  Level Chicago Center
Fri 12:21:01 PM 40.9908 -90.6725 119° Southeast 529 609 39,000  Level Chicago Center
Fri 12:22:04 PM 40.9203 -90.5019 119° Southeast 529 609 39,000  Level Chicago Center
Fri 12:23:06 PM 40.8347 -90.2975 119° Southeast 530 610 39,000  Level Chicago Center
Fri 12:24:08 PM 40.7700 -90.1436 119° Southeast 530 610 39,000  Level Chicago Center
Fri 12:29:55 PM 40.3418 -89.1456 120° Southeast 529 609 39,000 -155 Level FlightAware ADS-B
Fri 12:31:13 PM 40.2631 -88.9656 120° Southeast 528 608 37,900 -2,000 Descending Kansas City Center
Fri 12:32:25 PM 40.1608 -88.7333 120° Southeast 527 606 34,000 -3,179 Descending Chicago Center
Fri 12:33:27 PM 40.0869 -88.5664 120° Southeast 529 609 30,800 -2,419 Descending Chicago Center
Fri 12:34:29 PM 40.0150 -88.4047 120° Southeast 507 583 29,000 -864 Descending Chicago Center
Fri 12:35:32 PM 39.9456 -88.2497 120° Southeast 498 573 29,000  Level Chicago Center
Fri 12:36:35 PM 39.8636 -88.0678 120° Southeast 499 574 29,000  Level Indianapolis Center
Fri 12:37:37 PM 39.7936 -87.9128 120° Southeast 499 574 29,000  Level Indianapolis Center
Fri 12:38:39 PM 39.7231 -87.7581 121° Southeast 499 574 29,000 -532 Level Indianapolis Center
Fri 12:39:41 PM 39.6531 -87.6047 121° Southeast 495 570 27,900 -1,790 Descending Indianapolis Center
Fri 12:40:43 PM 39.5836 -87.4539 121° Southeast 492 566 25,300 -1,790 Descending Indianapolis Center
Fri 12:41:45 PM 39.5156 -87.3061 121° Southeast 477 549 24,200 -1,113 Descending Indianapolis Center
Fri 12:42:47 PM 39.4158 -87.1569 131° Southeast 461 531 23,000 -1,306 Descending Indianapolis Center
Fri 12:43:49 PM 39.3261 -87.0475 137° Southeast 448 516 21,500 -1,548 Descending Indianapolis Center
Fri 12:44:51 PM 39.2397 -86.9411 136° Southeast 429 494 19,800 -1,548 Descending Indianapolis Center
Fri 12:45:53 PM 39.1569 -86.8394 136° Southeast 415 478 18,300 -1,306 Descending Indianapolis Center
Fri 12:46:55 PM 39.0761 -86.7411 137° Southeast 407 468 17,100 -1,403 Descending Indianapolis Center
Fri 12:47:57 PM 38.9794 -86.6233 137° Southeast 395 455 15,400 -1,167 Descending Indianapolis Center
Fri 12:54:07 PM 38.5471 -86.1176 155° Southeast 286 329 8,700 -1,050 Descending FlightAware ADS-B
Fri 12:55:00 PM 38.4776 -86.0781 156° South 280 322 8,000 -750 Descending FlightAware ADS-B
Fri 12:56:07 PM 38.3982 -86.0332 156° South 276 318 7,200 -756 Descending FlightAware ADS-B
Fri 12:57:07 PM 38.3332 -85.9963 154° Southeast 273 314 6,400 -684 Descending FlightAware ADS-B
Fri 12:58:01 PM 38.2722 -85.9478 146° Southeast 273 314 5,900 -250 Descending FlightAware ADS-B
Fri 12:59:07 PM 38.2030 -85.8881 146° Southeast 274 315 5,900 -414 Level FlightAware ADS-B
Fri 12:59:57 PM 38.1938 -85.8802 146° Southeast 272 313 5,100 -846 Descending FlightAware ADS-B
Fri 01:00:25 PM 38.1165 -85.8337 166° South 260 299 4,800 -545 Descending FlightAware ADS-B
Fri 01:01:36 PM 38.0443 -85.8141 164° South 223 257 4,200 -375 Descending FlightAware ADS-B
Fri 01:02:49 PM 37.9726 -85.7765 153° Southeast 222 255 3,900 -372 Descending FlightAware ADS-B
Fri 01:04:01 PM 37.9746 -85.6968 41° Northeast 206 237 3,300 -616 Descending FlightAware ADS-B
Fri 01:05:15 PM 38.0416 -85.7011 347° North 189 217 2,400 -667 Descending FlightAware ADS-B
Fri 01:06:16 PM 38.0802 -85.7137 346° North 161 185 1,800 -732 Descending FlightAware ADS-B
Fri 01:06:37 PM 38.1015 -85.7206 346° North 157 181 1,400 -700 Descending FlightAware ADS-B
Fri 01:07:16 PM 38.1333 -85.7333 346° North 149 171 1,100 -462 Descending Louisville TRACON

Login

Don't have an account? Register now (free) for customized features, flight alerts, and more!